Time;durP1;ratioP1;P1;durP2;ratioP2;P2;SDS_P1;SDS_P2;PMS_P1;PMS_P2;Temp;Humidity;BMP_temperature;BMP_pressure;BME280_temperature;BME280_humidity;BME280_pressure;Samples;Min_cycle;Max_cycle;Signal;HPM_P1;HPM_P2
2022/04/11 00:00:41;;;;;;;12.23;3.30;;;2.70;99.90;;;;;;4995124;28;20041;-72
2022/04/11 00:03:07;;;;;;;6.63;2.95;;;2.70;99.90;;;;;;4999818;28;20033;-72
2022/04/11 00:05:33;;;;;;;7.38;3.20;;;2.60;99.90;;;;;;4992714;28;20108;-72
2022/04/11 00:07:59;;;;;;;7.57;2.90;;;2.60;99.90;;;;;;4980596;28;20509;-71
2022/04/11 00:10:24;;;;;;;7.78;3.30;;;2.60;99.90;;;;;;4993855;28;20095;-72
2022/04/11 00:12:50;;;;;;;9.63;3.38;;;2.70;99.90;;;;;;4995450;28;20044;-73
2022/04/11 00:15:16;;;;;;;8.60;3.38;;;2.60;99.90;;;;;;4994238;28;20077;-72
2022/04/11 00:17:42;;;;;;;7.20;2.90;;;2.50;99.90;;;;;;4973093;28;20657;-73
2022/04/11 00:20:08;;;;;;;10.48;3.20;;;2.60;99.90;;;;;;4993655;28;20075;-73
2022/04/11 00:22:35;;;;;;;10.00;3.17;;;2.60;99.90;;;;;;4987391;28;20045;-73
2022/04/11 00:25:02;;;;;;;8.30;3.10;;;2.60;99.90;;;;;;4996840;28;20076;-73
2022/04/11 00:27:28;;;;;;;8.43;3.30;;;2.50;99.90;;;;;;4975002;28;20065;-73
2022/04/11 00:29:54;;;;;;;6.03;2.90;;;2.50;99.90;;;;;;4994664;28;20555;-73
2022/04/11 00:32:19;;;;;;;7.22;3.05;;;2.40;99.90;;;;;;4969757;28;20442;-73
2022/04/11 00:34:45;;;;;;;7.88;3.70;;;2.30;99.90;;;;;;4992902;28;20057;-72
2022/04/11 00:37:11;;;;;;;8.43;3.35;;;2.20;99.90;;;;;;4989117;28;20764;-72
2022/04/11 00:39:37;;;;;;;13.07;4.28;;;2.20;99.90;;;;;;4986442;28;20076;-72
2022/04/11 00:42:15;;;;;;;19.80;3.78;;;2.20;99.90;;;;;;4955477;28;20072;-72
2022/04/11 00:44:41;;;;;;;15.68;3.45;;;2.20;99.90;;;;;;4991432;28;20042;-71
2022/04/11 00:47:08;;;;;;;16.88;3.50;;;2.20;99.90;;;;;;4989517;28;20163;-72
2022/04/11 00:49:34;;;;;;;9.80;3.45;;;2.20;99.90;;;;;;4987674;28;20049;-72
2022/04/11 00:52:00;;;;;;;15.95;3.83;;;2.20;99.90;;;;;;4970807;28;20071;-73
2022/04/11 00:54:29;;;;;;;14.68;3.45;;;2.20;99.90;;;;;;4989243;28;20053;-73
2022/04/11 00:56:57;;;;;;;55.83;6.68;;;2.10;99.90;;;;;;4995664;28;20161;-73
2022/04/11 00:59:24;;;;;;;7.50;3.00;;;2.10;99.90;;;;;;4993710;28;20057;-73
2022/04/11 01:01:50;;;;;;;6.85;2.90;;;2.00;99.90;;;;;;4987198;28;20081;-73
2022/04/11 01:04:26;;;;;;;5.97;3.25;;;2.00;99.90;;;;;;4988932;28;20147;-73
2022/04/11 01:06:55;;;;;;;13.55;3.80;;;1.90;99.90;;;;;;4972960;28;20053;-72
2022/04/11 01:09:23;;;;;;;23.23;4.53;;;1.90;99.90;;;;;;4991800;28;20088;-73
2022/04/11 01:11:49;;;;;;;9.55;3.42;;;1.90;99.90;;;;;;4989627;28;20129;-72
2022/04/11 01:14:16;;;;;;;8.75;3.60;;;1.90;99.90;;;;;;4972078;28;20522;-72
2022/04/11 01:16:47;;;;;;;8.73;3.60;;;1.90;99.90;;;;;;4988187;28;20053;-72
2022/04/11 01:19:13;;;;;;;8.40;3.50;;;1.90;99.90;;;;;;4975927;28;20096;-72
2022/04/11 01:21:38;;;;;;;7.43;3.67;;;1.80;99.90;;;;;;4980606;28;20584;-72
2022/04/11 01:24:05;;;;;;;8.70;3.83;;;1.80;99.90;;;;;;4976288;28;20060;-72
2022/04/11 01:26:31;;;;;;;7.60;3.50;;;1.70;99.90;;;;;;5000747;28;20050;-72
2022/04/11 01:28:57;;;;;;;7.38;3.80;;;1.80;99.90;;;;;;4999555;28;20057;-72
2022/04/11 01:31:25;;;;;;;10.07;3.55;;;1.70;99.90;;;;;;4995808;28;20857;-72
2022/04/11 01:33:51;;;;;;;6.57;3.75;;;1.70;99.90;;;;;;4998351;28;20049;-72
2022/04/11 01:36:18;;;;;;;7.55;3.50;;;1.70;99.90;;;;;;4997210;28;20550;-72
2022/04/11 01:38:44;;;;;;;9.20;3.78;;;1.70;99.90;;;;;;4993969;28;20068;-73
2022/04/11 01:41:10;;;;;;;8.60;3.75;;;1.70;99.90;;;;;;4995893;28;20041;-73
2022/04/11 01:43:36;;;;;;;7.03;3.58;;;1.70;99.90;;;;;;4998790;28;20111;-72
2022/04/11 01:46:01;;;;;;;9.00;3.50;;;1.80;99.90;;;;;;4995504;28;20192;-72
2022/04/11 01:48:27;;;;;;;8.32;3.90;;;1.70;99.90;;;;;;4992279;28;20054;-73
2022/04/11 01:50:53;;;;;;;7.55;3.33;;;1.70;99.90;;;;;;5002874;28;20053;-72
2022/04/11 01:53:20;;;;;;;9.70;4.25;;;1.80;99.90;;;;;;4988424;28;20049;-73
2022/04/11 01:55:46;;;;;;;5.70;3.10;;;1.80;99.90;;;;;;5002003;28;20072;-72
2022/04/11 01:58:13;;;;;;;11.27;3.75;;;1.70;99.90;;;;;;5002747;28;20041;-72
2022/04/11 02:00:39;;;;;;;9.07;4.15;;;1.70;99.90;;;;;;4980276;28;20934;-73
2022/04/11 02:03:07;;;;;;;5.53;2.83;;;1.70;99.90;;;;;;4996567;28;20056;-73
2022/04/11 02:05:33;;;;;;;5.97;3.42;;;1.70;99.90;;;;;;4998667;28;20079;-72
2022/04/11 02:07:59;;;;;;;8.80;3.28;;;1.70;99.90;;;;;;4995680;28;20066;-72
2022/04/11 02:10:25;;;;;;;7.50;3.63;;;1.70;99.90;;;;;;4958905;28;20898;-72
2022/04/11 02:12:52;;;;;;;10.93;4.32;;;1.70;99.90;;;;;;4995880;28;20294;-72
2022/04/11 02:15:18;;;;;;;9.07;3.50;;;1.70;99.90;;;;;;4994916;28;20037;-73
2022/04/11 02:17:47;;;;;;;7.65;3.47;;;1.70;99.90;;;;;;4992743;28;20613;-72
2022/04/11 02:20:13;;;;;;;10.70;3.85;;;1.70;99.90;;;;;;4981231;28;20152;-72
2022/04/11 02:22:51;;;;;;;11.02;4.53;;;1.70;99.90;;;;;;4997387;28;20049;-73
2022/04/11 02:25:22;;;;;;;15.20;4.40;;;1.80;99.90;;;;;;4999688;28;21049;-73
2022/04/11 02:27:48;;;;;;;10.82;4.45;;;1.80;99.90;;;;;;4979369;28;20061;-73
2022/04/11 02:30:16;;;;;;;17.92;4.95;;;1.70;99.90;;;;;;5002723;28;20083;-72
2022/04/11 02:32:43;;;;;;;10.20;3.90;;;1.80;99.90;;;;;;4998225;28;20128;-72
2022/04/11 02:35:09;;;;;;;10.35;4.43;;;1.80;99.90;;;;;;4990566;28;21232;-73
2022/04/11 02:37:35;;;;;;;9.82;4.20;;;1.70;99.90;;;;;;4977191;28;20053;-72
2022/04/11 02:40:02;;;;;;;8.30;3.75;;;1.70;99.90;;;;;;4975336;28;20085;-73
2022/04/11 02:42:29;;;;;;;8.35;4.22;;;1.70;99.90;;;;;;4972564;28;20071;-73
2022/04/11 02:44:55;;;;;;;8.40;3.78;;;1.60;99.90;;;;;;4993905;28;20218;-73
2022/04/11 02:47:21;;;;;;;9.35;3.42;;;1.70;99.90;;;;;;4955526;28;20069;-73
2022/04/11 02:49:57;;;;;;;7.28;3.65;;;1.70;99.90;;;;;;4968473;28;20578;-73
2022/04/11 02:52:22;;;;;;;8.05;3.58;;;1.70;99.90;;;;;;4989354;28;20173;-73
2022/04/11 02:54:48;;;;;;;12.00;4.35;;;1.70;99.90;;;;;;4990245;28;21032;-73
2022/04/11 02:57:14;;;;;;;18.95;4.72;;;1.70;99.90;;;;;;4972392;28;20501;-73
2022/04/11 02:59:40;;;;;;;16.55;3.97;;;1.70;99.90;;;;;;4995876;28;21105;-72
2022/04/11 03:02:06;;;;;;;10.07;3.33;;;1.60;99.90;;;;;;4972733;28;20049;-73
2022/04/11 03:04:31;;;;;;;11.27;3.88;;;1.50;99.90;;;;;;4985498;28;20095;-73
2022/04/11 03:06:57;;;;;;;11.15;3.83;;;1.60;99.90;;;;;;4993516;28;20128;-73
2022/04/11 03:09:23;;;;;;;9.07;4.03;;;1.60;99.90;;;;;;4995295;28;20631;-73
2022/04/11 03:11:49;;;;;;;6.75;3.70;;;1.60;99.90;;;;;;4968658;28;20156;-72
2022/04/11 03:14:15;;;;;;;7.90;3.58;;;1.60;99.90;;;;;;4982080;28;20567;-72
2022/04/11 03:16:41;;;;;;;7.40;3.42;;;1.50;99.90;;;;;;4995754;28;20048;-73
2022/04/11 03:19:08;;;;;;;12.30;4.30;;;1.50;99.90;;;;;;4991298;28;20504;-73
2022/04/11 03:21:34;;;;;;;9.82;4.03;;;1.60;99.90;;;;;;4975260;28;20057;-73
2022/04/11 03:24:00;;;;;;;11.73;4.43;;;1.50;99.90;;;;;;4976033;28;20543;-73
2022/04/11 03:26:26;;;;;;;9.13;4.10;;;1.40;99.90;;;;;;4993665;28;20088;-73
2022/04/11 03:28:52;;;;;;;13.88;4.57;;;1.40;99.90;;;;;;4992049;28;21083;-73
2022/04/11 03:31:18;;;;;;;8.38;4.50;;;1.30;99.90;;;;;;4995431;28;20056;-73
2022/04/11 03:33:44;;;;;;;9.02;4.40;;;1.30;99.90;;;;;;5001527;28;20057;-72
2022/04/11 03:36:10;;;;;;;8.43;4.22;;;1.40;99.90;;;;;;4999852;28;20049;-73
2022/04/11 03:38:36;;;;;;;13.40;4.55;;;1.40;99.90;;;;;;4983163;28;20092;-72
2022/04/11 03:41:02;;;;;;;11.23;4.35;;;1.30;99.90;;;;;;4994308;28;20058;-73
2022/04/11 03:43:28;;;;;;;7.30;3.72;;;1.20;99.90;;;;;;4998604;28;20060;-72
2022/04/11 03:45:54;;;;;;;7.50;4.43;;;1.30;99.90;;;;;;4993515;28;20391;-72
2022/04/11 03:48:20;;;;;;;9.70;5.25;;;1.30;99.90;;;;;;4979865;28;20071;-73
2022/04/11 03:50:46;;;;;;;10.05;3.95;;;1.30;99.90;;;;;;4973631;28;20061;-73
2022/04/11 03:53:12;;;;;;;12.45;4.35;;;1.20;99.90;;;;;;4976976;28;20071;-73
2022/04/11 03:55:38;;;;;;;14.13;4.63;;;1.20;99.90;;;;;;4976910;28;20045;-73
2022/04/11 03:58:04;;;;;;;25.25;4.88;;;1.20;99.90;;;;;;4979817;28;20110;-73
2022/04/11 04:00:30;;;;;;;43.88;6.40;;;1.30;99.90;;;;;;4982139;28;20053;-73
2022/04/11 04:03:06;;;;;;;33.45;5.32;;;1.30;99.90;;;;;;4993141;28;20078;-73
2022/04/11 04:05:32;;;;;;;15.75;4.38;;;1.30;99.90;;;;;;4972994;28;20045;-73
2022/04/11 04:07:57;;;;;;;54.33;7.15;;;1.40;99.90;;;;;;4982566;28;20419;-73
2022/04/11 04:10:26;;;;;;;19.88;5.13;;;1.40;99.90;;;;;;4993078;28;20050;-72
2022/04/11 04:12:57;;;;;;;18.92;4.75;;;1.50;99.90;;;;;;4976258;28;20045;-72
2022/04/11 04:15:23;;;;;;;13.48;5.25;;;1.60;99.90;;;;;;4992327;28;20038;-72
2022/04/11 04:17:52;;;;;;;17.17;4.82;;;1.60;99.90;;;;;;4980500;28;20045;-72
2022/04/11 04:20:18;;;;;;;27.45;5.85;;;1.70;99.90;;;;;;4999042;28;20048;-73
2022/04/11 04:22:44;;;;;;;12.90;4.68;;;1.80;99.90;;;;;;4993126;28;20061;-73
2022/04/11 04:25:10;;;;;;;11.65;4.50;;;1.70;99.90;;;;;;4975176;28;20581;-72
2022/04/11 04:27:36;;;;;;;9.38;3.90;;;1.70;99.90;;;;;;4993469;28;20072;-73
2022/04/11 04:30:02;;;;;;;19.38;5.50;;;1.80;99.90;;;;;;4993981;28;20048;-72
2022/04/11 04:32:28;;;;;;;17.67;4.68;;;1.90;99.90;;;;;;5000046;28;20049;-72
2022/04/11 04:34:54;;;;;;;13.70;4.95;;;1.90;99.90;;;;;;5009227;28;20092;-72
2022/04/11 04:37:20;;;;;;;9.82;5.22;;;2.00;99.90;;;;;;5005466;28;20102;-71
2022/04/11 04:39:45;;;;;;;8.70;5.72;;;2.00;99.90;;;;;;5006906;28;20065;-71
2022/04/11 04:42:11;;;;;;;12.50;5.45;;;2.20;99.90;;;;;;5009070;28;20128;-71
2022/04/11 04:44:40;;;;;;;10.23;5.70;;;2.20;99.90;;;;;;4986133;28;20163;-72
2022/04/11 04:47:10;;;;;;;11.75;5.78;;;2.20;99.90;;;;;;4990918;28;20505;-72
2022/04/11 04:49:36;;;;;;;10.95;5.60;;;2.20;99.90;;;;;;4992101;28;20053;-72
2022/04/11 04:52:02;;;;;;;10.45;6.03;;;2.20;99.90;;;;;;4974928;28;20170;-72
2022/04/11 04:54:28;;;;;;;11.25;6.20;;;2.30;99.90;;;;;;4990881;28;20049;-71
2022/04/11 04:56:54;;;;;;;13.02;6.55;;;2.30;99.90;;;;;;4991337;28;20045;-71
2022/04/11 04:59:20;;;;;;;12.02;6.38;;;2.40;99.90;;;;;;4988923;28;20065;-72
2022/04/11 05:01:46;;;;;;;13.65;6.10;;;2.50;99.90;;;;;;4967638;28;20118;-72
2022/04/11 05:04:12;;;;;;;10.95;7.20;;;2.50;99.90;;;;;;4975580;28;20054;-72
2022/04/11 05:06:37;;;;;;;19.85;6.93;;;2.60;99.90;;;;;;4959768;28;20164;-72
2022/04/11 05:09:03;;;;;;;34.58;8.02;;;2.70;99.90;;;;;;4976109;28;20048;-72
2022/04/11 05:11:29;;;;;;;8.73;6.50;;;2.60;99.90;;;;;;4978474;28;20954;-72
2022/04/11 05:13:55;;;;;;;9.02;6.30;;;2.60;99.90;;;;;;4967139;28;20056;-72
2022/04/11 05:16:21;;;;;;;12.98;7.30;;;2.70;99.90;;;;;;4979236;28;20163;-72
2022/04/11 05:18:46;;;;;;;12.80;6.88;;;2.80;99.90;;;;;;4981047;28;20848;-72
2022/04/11 05:21:13;;;;;;;12.43;7.13;;;2.80;99.90;;;;;;4989089;28;20817;-72
2022/04/11 05:23:38;;;;;;;12.00;7.40;;;3.00;99.90;;;;;;4984901;28;20045;-72
2022/04/11 05:26:05;;;;;;;11.45;7.13;;;2.90;99.90;;;;;;4987712;28;20052;-72
2022/04/11 05:28:32;;;;;;;11.32;7.18;;;2.90;99.90;;;;;;4983669;28;20117;-71
2022/04/11 05:30:59;;;;;;;12.85;7.45;;;3.00;99.90;;;;;;4953267;28;20056;-72
2022/04/11 05:33:24;;;;;;;11.25;6.97;;;3.10;99.90;;;;;;4983409;28;20045;-72
2022/04/11 05:35:51;;;;;;;11.02;7.00;;;3.10;99.90;;;;;;5000348;28;20060;-72
2022/04/11 05:38:17;;;;;;;13.45;7.53;;;3.10;99.90;;;;;;4998158;28;20158;-72
2022/04/11 05:40:45;;;;;;;12.27;7.75;;;3.10;99.90;;;;;;4998553;28;20894;-72
2022/04/11 05:43:13;;;;;;;13.80;7.65;;;3.10;99.90;;;;;;4993824;28;20080;-72
2022/04/11 05:45:39;;;;;;;16.27;7.78;;;3.20;99.90;;;;;;4996167;28;21264;-72
2022/04/11 05:48:05;;;;;;;11.60;7.50;;;3.30;99.90;;;;;;4994072;28;20488;-73
2022/04/11 05:50:31;;;;;;;13.68;7.22;;;3.30;99.90;;;;;;4989264;28;20128;-73
2022/04/11 05:52:57;;;;;;;19.45;7.57;;;3.40;99.90;;;;;;4993596;28;20041;-72
2022/04/11 05:55:23;;;;;;;11.95;6.90;;;3.40;99.90;;;;;;4993325;28;20099;-72
2022/04/11 05:57:49;;;;;;;13.48;7.57;;;3.30;99.90;;;;;;4992245;28;20050;-72
2022/04/11 06:00:16;;;;;;;10.32;7.05;;;3.40;99.90;;;;;;4991642;28;20515;-72
2022/04/11 06:02:42;;;;;;;11.50;7.45;;;3.40;99.90;;;;;;5009640;28;20045;-72
2022/04/11 06:05:11;;;;;;;11.70;6.97;;;3.40;99.90;;;;;;5008559;28;20816;-72
2022/04/11 06:07:38;;;;;;;13.07;7.45;;;3.40;99.90;;;;;;5009570;28;20049;-72
2022/04/11 06:10:05;;;;;;;17.08;7.32;;;3.50;99.90;;;;;;5007384;28;20144;-72
2022/04/11 06:12:31;;;;;;;21.17;7.80;;;3.50;99.90;;;;;;4992983;28;20053;-72
2022/04/11 06:14:58;;;;;;;19.75;7.68;;;3.60;99.90;;;;;;4996234;28;20578;-72
2022/04/11 06:17:24;;;;;;;16.10;7.35;;;3.60;99.90;;;;;;5014027;28;20048;-72
2022/04/11 06:19:52;;;;;;;18.02;7.57;;;3.70;99.90;;;;;;4994904;28;20407;-72
2022/04/11 06:22:18;;;;;;;20.00;8.38;;;3.80;99.90;;;;;;5013774;28;20960;-72
2022/04/11 06:24:44;;;;;;;15.60;7.00;;;3.80;99.90;;;;;;5011860;28;20124;-72
2022/04/11 06:27:10;;;;;;;13.43;6.95;;;3.90;99.90;;;;;;5014658;28;20064;-72
2022/04/11 06:29:36;;;;;;;15.73;7.00;;;4.00;99.90;;;;;;5012649;28;20052;-71
2022/04/11 06:32:04;;;;;;;13.68;7.20;;;4.00;99.90;;;;;;4992843;28;20057;-72
2022/04/11 06:34:31;;;;;;;18.02;7.55;;;4.10;99.90;;;;;;5007515;28;20049;-72
2022/04/11 06:36:57;;;;;;;28.83;8.05;;;4.10;99.90;;;;;;5009852;28;20050;-72
2022/04/11 06:39:23;;;;;;;21.55;7.18;;;4.30;99.90;;;;;;5014448;28;20064;-72
2022/04/11 06:41:49;;;;;;;10.98;6.75;;;4.40;99.90;;;;;;5014186;28;20057;-72
2022/04/11 06:44:15;;;;;;;12.05;7.00;;;4.50;99.90;;;;;;5012688;28;20052;-72
2022/04/11 06:46:41;;;;;;;8.25;6.18;;;4.70;99.90;;;;;;5014869;28;20075;-72
2022/04/11 06:49:07;;;;;;;12.10;7.10;;;4.90;99.90;;;;;;4998375;28;20131;-72
2022/04/11 06:51:33;;;;;;;17.58;7.75;;;5.00;99.90;;;;;;5013326;28;20792;-72
2022/04/11 06:53:59;;;;;;;12.85;7.28;;;5.20;99.90;;;;;;4999341;28;20041;-72
2022/04/11 06:56:25;;;;;;;12.18;7.13;;;5.40;99.90;;;;;;5012568;28;20044;-71
2022/04/11 06:58:51;;;;;;;10.20;6.93;;;5.50;99.90;;;;;;5014555;28;20174;-72
2022/04/11 07:01:17;;;;;;;10.75;7.05;;;5.60;99.90;;;;;;5014736;28;20750;-72
2022/04/11 07:03:43;;;;;;;11.98;7.13;;;5.80;99.90;;;;;;4977027;28;20040;-72
2022/04/11 07:06:10;;;;;;;12.15;7.13;;;6.00;99.90;;;;;;4977688;28;20053;-72
2022/04/11 07:08:36;;;;;;;9.35;7.10;;;6.10;99.90;;;;;;4973870;28;20056;-72
2022/04/11 07:11:04;;;;;;;12.30;7.97;;;6.20;99.90;;;;;;4990526;28;20045;-72
2022/04/11 07:13:30;;;;;;;13.35;7.30;;;6.30;99.90;;;;;;4991170;28;20495;-73
2022/04/11 07:15:56;;;;;;;14.10;6.95;;;6.40;99.90;;;;;;4983343;28;20107;-72
2022/04/11 07:18:27;;;;;;;12.80;6.90;;;6.40;99.90;;;;;;4989347;28;20037;-72
2022/04/11 07:20:55;;;;;;;11.65;6.85;;;6.50;99.90;;;;;;4985889;28;20686;-72
2022/04/11 07:23:21;;;;;;;11.88;6.65;;;6.60;99.90;;;;;;4989562;28;20524;-73
2022/04/11 07:25:48;;;;;;;13.18;6.82;;;6.60;99.90;;;;;;4984133;28;20049;-72
2022/04/11 07:28:17;;;;;;;11.98;7.18;;;6.70;99.90;;;;;;4969000;28;20091;-72
2022/04/11 07:30:43;;;;;;;14.10;6.90;;;6.80;99.90;;;;;;4982366;28;20054;-73
2022/04/11 07:33:09;;;;;;;11.52;6.95;;;6.90;99.90;;;;;;4973082;28;20048;-72
2022/04/11 07:35:36;;;;;;;11.10;6.65;;;6.90;99.90;;;;;;4971745;28;20136;-72
2022/04/11 07:38:02;;;;;;;12.90;7.35;;;7.00;99.90;;;;;;4987203;28;20123;-73
2022/04/11 07:40:29;;;;;;;9.63;6.53;;;7.10;99.90;;;;;;4991491;28;20041;-72
2022/04/11 07:42:55;;;;;;;11.55;7.03;;;7.10;99.90;;;;;;4975637;28;20071;-73
2022/04/11 07:45:21;;;;;;;10.15;6.68;;;7.20;99.90;;;;;;4993751;28;20055;-72
2022/04/11 07:47:47;;;;;;;12.43;6.13;;;7.30;99.90;;;;;;4993362;28;20045;-72
2022/04/11 07:50:14;;;;;;;11.07;6.35;;;7.10;99.90;;;;;;4991231;28;20047;-73
2022/04/11 07:52:42;;;;;;;12.40;6.47;;;6.90;99.90;;;;;;4971764;28;20224;-72
2022/04/11 07:55:12;;;;;;;30.92;7.85;;;7.20;99.90;;;;;;4980454;28;20041;-72
2022/04/11 07:57:38;;;;;;;69.90;10.90;;;7.30;99.90;;;;;;4990518;28;20240;-73
2022/04/11 08:00:09;;;;;;;18.83;6.93;;;7.50;99.90;;;;;;4988182;28;20876;-72
2022/04/11 08:02:35;;;;;;;41.53;8.82;;;7.70;99.90;;;;;;4991211;28;20041;-73
2022/04/11 08:05:02;;;;;;;15.65;6.75;;;7.80;99.90;;;;;;4984497;28;20776;-73
2022/04/11 08:07:30;;;;;;;25.80;7.50;;;8.00;99.90;;;;;;4985893;28;20088;-72
2022/04/11 08:09:56;;;;;;;15.75;7.45;;;8.20;99.90;;;;;;4967234;28;20053;-72
2022/04/11 08:12:21;;;;;;;10.43;6.65;;;8.30;99.90;;;;;;4970401;28;20555;-72
2022/04/11 08:14:47;;;;;;;15.07;7.85;;;8.20;99.90;;;;;;4993827;28;20411;-73
2022/04/11 08:17:13;;;;;;;10.38;6.43;;;8.50;99.90;;;;;;4970968;28;20041;-73
2022/04/11 08:19:39;;;;;;;10.98;6.50;;;8.20;99.90;;;;;;4973139;28;20451;-72
2022/04/11 08:22:06;;;;;;;12.57;6.78;;;8.20;99.90;;;;;;4988113;28;20041;-73
2022/04/11 08:24:32;;;;;;;11.90;7.45;;;8.10;99.90;;;;;;4971602;28;20048;-72
2022/04/11 08:26:59;;;;;;;13.48;7.78;;;8.60;99.90;;;;;;4983644;28;20064;-72
2022/04/11 08:29:25;;;;;;;16.52;7.78;;;8.90;99.90;;;;;;4970722;28;20834;-73
2022/04/11 08:31:52;;;;;;;14.00;7.30;;;9.10;99.90;;;;;;4989342;28;20507;-73
2022/04/11 08:34:17;;;;;;;10.73;6.90;;;9.20;99.90;;;;;;4978083;28;20053;-72
2022/04/11 08:36:44;;;;;;;19.52;7.53;;;8.90;99.90;;;;;;4989534;28;20052;-73
2022/04/11 08:39:10;;;;;;;17.50;7.97;;;9.60;99.90;;;;;;5010360;28;20048;-73
2022/04/11 08:41:37;;;;;;;17.40;7.70;;;10.00;99.90;;;;;;5010894;28;20514;-73
2022/04/11 08:44:05;;;;;;;11.95;7.90;;;10.20;99.90;;;;;;5004427;28;20045;-73
2022/04/11 08:46:33;;;;;;;13.45;8.35;;;10.00;99.90;;;;;;4994017;28;20056;-73
2022/04/11 08:49:00;;;;;;;14.02;8.88;;;10.10;99.90;;;;;;5006009;28;20140;-73
2022/04/11 08:51:26;;;;;;;13.27;8.68;;;10.70;99.90;;;;;;4991474;28;20128;-73
2022/04/11 08:53:52;;;;;;;13.88;8.75;;;10.80;99.90;;;;;;5007070;28;20045;-73
2022/04/11 08:56:18;;;;;;;12.25;7.55;;;10.60;99.90;;;;;;5009469;28;20762;-72
2022/04/11 08:58:44;;;;;;;13.40;7.55;;;10.20;99.90;;;;;;5008072;28;20057;-72
2022/04/11 09:01:18;;;;;;;11.98;8.52;;;10.20;99.90;;;;;;5009367;28;20644;-73
2022/04/11 09:03:44;;;;;;;10.95;8.10;;;10.90;99.90;;;;;;5006914;28;20052;-73
2022/04/11 09:06:13;;;;;;;11.60;7.93;;;10.90;99.90;;;;;;5008780;28;20495;-73
2022/04/11 09:08:56;;;;;;;14.65;8.57;;;10.40;99.90;;;;;;5005651;28;20045;-72
2022/04/11 09:11:36;;;;;;;12.55;8.35;;;11.00;99.90;;;;;;5012029;28;20037;-73
2022/04/11 09:14:06;;;;;;;14.55;7.78;;;11.40;99.90;;;;;;5009470;28;20555;-73
2022/04/11 09:16:52;;;;;;;11.27;7.25;;;12.00;99.90;;;;;;4988716;28;20046;-73
2022/04/11 09:19:22;;;;;;;11.75;7.80;;;11.10;99.90;;;;;;5008627;28;20051;-73
2022/04/11 09:21:50;;;;;;;12.38;7.32;;;11.60;97.50;;;;;;5007361;28;20080;-73
2022/04/11 09:24:20;;;;;;;11.48;7.97;;;11.50;99.90;;;;;;5009142;28;20049;-73
2022/04/11 09:26:56;;;;;;;12.05;7.50;;;12.10;99.90;;;;;;4993765;28;20507;-73
2022/04/11 09:29:35;;;;;;;16.52;7.85;;;12.30;99.90;;;;;;5009966;28;20632;-73
2022/04/11 09:32:04;;;;;;;11.45;7.72;;;12.20;86.60;;;;;;4997160;28;20107;-73
2022/04/11 09:34:31;;;;;;;13.98;7.80;;;12.70;99.90;;;;;;5011461;28;20045;-73
2022/04/11 09:36:59;;;;;;;10.52;7.35;;;13.00;99.90;;;;;;5007333;28;20067;-73
2022/04/11 09:39:30;;;;;;;13.68;7.65;;;12.70;91.80;;;;;;4994324;28;20495;-73
2022/04/11 09:41:57;;;;;;;10.73;7.43;;;13.00;99.90;;;;;;5008985;28;20138;-73
2022/04/11 09:44:35;;;;;;;11.13;7.10;;;12.60;88.50;;;;;;5009093;28;20045;-73
2022/04/11 09:47:04;;;;;;;10.27;6.93;;;12.10;97.10;;;;;;5000418;28;20059;-73
2022/04/11 09:49:31;;;;;;;12.32;6.65;;;11.90;88.40;;;;;;5012504;28;20045;-73
2022/04/11 09:52:14;;;;;;;11.80;6.63;;;11.70;79.40;;;;;;5013335;28;20048;-73
2022/04/11 09:54:42;;;;;;;11.07;6.85;;;11.90;71.30;;;;;;5011185;28;20047;-73
2022/04/11 09:57:09;;;;;;;11.07;6.75;;;11.70;69.40;;;;;;5013238;28;20044;-73
2022/04/11 09:59:36;;;;;;;10.55;6.70;;;12.20;89.00;;;;;;4977351;28;20056;-73
2022/04/11 10:02:03;;;;;;;10.85;6.22;;;12.60;74.60;;;;;;5014398;28;20096;-73
2022/04/11 10:04:29;;;;;;;10.93;6.55;;;12.20;72.00;;;;;;5000965;28;20492;-73
2022/04/11 10:06:56;;;;;;;11.93;6.57;;;12.30;71.20;;;;;;5013706;28;20068;-73
2022/04/11 10:09:23;;;;;;;10.48;6.53;;;12.30;68.40;;;;;;5010747;28;20144;-72
2022/04/11 10:11:54;;;;;;;10.55;6.35;;;12.70;79.80;;;;;;4995007;28;20057;-73
2022/04/11 10:14:28;;;;;;;11.07;6.90;;;12.10;73.70;;;;;;5003404;28;20080;-73
2022/04/11 10:16:57;;;;;;;10.48;7.00;;;13.00;74.30;;;;;;4996829;28;20056;-73
2022/04/11 10:19:31;;;;;;;10.00;6.78;;;13.50;77.90;;;;;;5017249;28;20049;-73
2022/04/11 10:22:04;;;;;;;11.50;6.57;;;13.20;78.00;;;;;;4999512;28;20441;-73
2022/04/11 10:24:38;;;;;;;10.90;6.45;;;13.20;88.70;;;;;;5014918;28;20080;-73
2022/04/11 10:27:25;;;;;;;10.45;6.50;;;12.70;78.40;;;;;;5014471;28;20053;-73
2022/04/11 10:29:53;;;;;;;10.15;7.40;;;13.80;83.90;;;;;;5003661;28;20060;-72
2022/04/11 10:32:24;;;;;;;11.15;6.60;;;13.10;76.80;;;;;;5011159;28;20078;-73
2022/04/11 10:34:50;;;;;;;11.23;6.80;;;13.00;75.10;;;;;;5016359;28;20140;-73
2022/04/11 10:37:17;;;;;;;10.88;6.45;;;14.30;88.20;;;;;;4996617;28;20476;-72
2022/04/11 10:39:48;;;;;;;9.85;6.35;;;14.50;78.40;;;;;;5014622;28;20052;-73
2022/04/11 10:42:16;;;;;;;11.48;6.05;;;13.40;80.80;;;;;;4997065;28;20057;-73
2022/04/11 10:44:50;;;;;;;11.07;6.68;;;13.00;66.80;;;;;;4996934;28;20045;-73
2022/04/11 10:47:16;;;;;;;10.60;6.43;;;12.90;75.90;;;;;;5012624;28;20048;-72
2022/04/11 10:49:48;;;;;;;11.48;6.47;;;12.80;73.00;;;;;;5014141;28;20045;-73
2022/04/11 10:52:31;;;;;;;11.50;6.88;;;13.80;71.60;;;;;;4981400;28;20114;-73
2022/04/11 10:55:07;;;;;;;11.40;6.70;;;13.30;69.70;;;;;;5012681;28;20159;-73
2022/04/11 10:57:34;;;;;;;10.88;6.90;;;13.10;73.70;;;;;;4977672;28;20132;-73
2022/04/11 11:00:19;;;;;;;11.15;7.13;;;12.90;70.60;;;;;;5001290;28;20183;-73
2022/04/11 11:02:59;;;;;;;10.98;6.60;;;13.60;75.00;;;;;;4995817;28;20045;-73
2022/04/11 11:05:35;;;;;;;12.00;7.63;;;13.70;79.30;;;;;;4977357;28;20104;-72
2022/04/11 11:08:09;;;;;;;12.70;7.13;;;14.80;80.50;;;;;;4990460;28;20747;-72
2022/04/11 11:10:57;;;;;;;11.82;6.97;;;15.10;77.20;;;;;;4994760;28;20094;-73
2022/04/11 11:13:40;;;;;;;11.73;6.63;;;15.20;74.90;;;;;;4996141;28;20041;-73
2022/04/11 11:16:14;;;;;;;14.45;8.02;;;15.20;76.30;;;;;;4999147;28;20059;-73
2022/04/11 11:18:51;;;;;;;14.30;6.88;;;15.80;77.00;;;;;;4995322;28;20054;-73
2022/04/11 11:21:19;;;;;;;14.30;7.35;;;14.30;61.10;;;;;;4978765;28;20047;-73
2022/04/11 11:26:45;;;;;;;11.63;7.53;;;14.10;70.60;;;;;;4998038;28;21654;-73
2022/04/11 11:29:16;;;;;;;17.90;7.80;;;13.70;63.40;;;;;;4994828;28;20103;-73
2022/04/11 11:31:44;;;;;;;12.25;7.70;;;14.60;75.40;;;;;;4993268;28;20041;-73
2022/04/11 11:34:15;;;;;;;12.73;7.60;;;13.70;65.10;;;;;;4997284;28;20068;-74
2022/04/11 11:36:41;;;;;;;11.48;7.53;;;14.50;72.50;;;;;;5000844;28;20038;-73
2022/04/11 11:39:18;;;;;;;11.40;7.70;;;13.40;62.70;;;;;;4996500;28;20761;-73
2022/04/11 11:41:49;;;;;;;19.05;8.73;;;13.20;63.90;;;;;;4994242;28;20088;-73
2022/04/11 11:44:16;;;;;;;16.25;8.75;;;14.10;73.60;;;;;;4991173;28;20508;-74
2022/04/11 11:47:08;;;;;;;20.27;9.02;;;14.50;73.60;;;;;;4990491;28;20050;-73
2022/04/11 11:49:42;;;;;;;17.52;9.95;;;15.30;74.00;;;;;;4977222;28;20344;-73
2022/04/11 11:52:17;;;;;;;;;;;15.60;73.10;;;;;;4996229;28;20049;-73
2022/04/11 11:54:48;;;;;;;12.30;9.15;;;15.40;66.10;;;;;;4995145;28;21070;-73
2022/04/11 11:57:22;;;;;;;13.77;8.73;;;14.50;65.70;;;;;;4994041;28;21162;-74
2022/04/11 12:00:01;;;;;;;13.82;9.25;;;13.90;66.30;;;;;;4995009;28;20475;-73
2022/04/11 12:05:24;;;;;;;15.95;10.13;;;14.60;68.70;;;;;;4993097;28;20053;-73
2022/04/11 12:08:15;;;;;;;12.50;9.57;;;15.70;68.00;;;;;;4992348;28;20071;-74
2022/04/11 12:10:46;;;;;;;20.30;9.95;;;15.90;64.20;;;;;;4993709;28;20122;-74
2022/04/11 12:13:27;;;;;;;12.00;8.70;;;15.60;62.30;;;;;;4997082;28;20151;-74
2022/04/11 12:15:53;;;;;;;15.90;9.30;;;14.20;61.60;;;;;;4990940;28;20060;-74
2022/04/11 12:18:19;;;;;;;12.13;8.80;;;14.90;70.00;;;;;;4992976;28;20033;-73
2022/04/11 12:20:45;;;;;;;12.38;8.90;;;14.80;62.00;;;;;;4988752;28;20056;-74
2022/04/11 12:23:16;;;;;;;12.90;9.27;;;14.30;62.50;;;;;;4994279;28;20937;-74
2022/04/11 12:25:54;;;;;;;12.45;8.60;;;13.90;57.10;;;;;;4991731;28;20061;-74
2022/04/11 12:28:27;;;;;;;13.20;8.50;;;13.90;58.30;;;;;;4993548;28;20057;-73
2022/04/11 12:31:02;;;;;;;16.17;9.10;;;14.50;61.70;;;;;;4973700;28;20122;-74
2022/04/11 12:33:49;;;;;;;12.98;9.23;;;14.80;65.20;;;;;;4975090;28;20505;-74
2022/04/11 12:36:19;;;;;;;11.57;8.65;;;14.80;68.40;;;;;;4974385;28;20742;-73
2022/04/11 12:38:59;;;;;;;12.95;9.25;;;14.70;60.70;;;;;;4988240;28;20591;-73
2022/04/11 12:41:37;;;;;;;12.30;9.23;;;14.40;63.30;;;;;;4988062;28;20057;-74
2022/04/11 12:44:09;;;;;;;12.82;9.25;;;14.50;64.50;;;;;;5012386;28;20056;-73
2022/04/11 12:46:42;;;;;;;12.80;9.23;;;14.60;63.80;;;;;;5010867;28;20056;-74
2022/04/11 12:49:09;;;;;;;12.03;9.00;;;14.00;60.10;;;;;;5006285;28;20052;-73
2022/04/11 12:51:36;;;;;;;12.55;8.75;;;14.20;65.80;;;;;;4990988;28;20113;-74
2022/04/11 12:54:06;;;;;;;12.98;10.05;;;13.90;62.60;;;;;;5006999;28;20120;-74
2022/04/11 12:56:41;;;;;;;14.25;10.30;;;13.90;62.40;;;;;;5009285;28;20500;-73